메인 페이지
METAR-TAF:

METAR-TAF

공항 :

Long Beach Airport (Daugherty Field)

롱비치, 캘리포니아, 미국

위도: 33-48-42N, 경도: 118-08-47W, 고도: 17m

현재 날씨관측

예보는 39분 전, 19:53시(UTC)에 발표되었습니다.
북서5kt
온도 22°C
습도 60%
기압 1012 hPa
시정: 16.1km
고도 1700ft 상공 구름 보통

METAR: KLGB 191953Z 31005KT 10SM SCT017 22/14 A2987 RMK AO2 SLP115 T02170144

시각: 13:32 (20:32 UTC)

예보

예보는 2 시간 52분 전, 17:40시(UTC)에 발표되었습니다.
예보 대상 시간: 19일 18시부터 20일 18시까지 (UTC)
여러 방향의 바람 5kt
시정: 10km
고도 1400ft 상공 흐림
19일 2000시부터 (UTC)
남남서8kt
시정: 10km
맑음
20일 0000시부터 (UTC)
서북서8kt
시정: 10km
맑음
20일 0600시부터 (UTC)
여러 방향의 바람 3kt
시정: 10km
고도 1500ft 상공 흐림

TAF: KLGB 191740Z 1918/2018 VRB05KT P6SM OVC014 FM192000 20008KT P6SM SKC FM200000 30008KT P6SM SKC FM200600 VRB03KT P6SM OVC015

4,000개 이상의 공항 관측 자료 및 예보 (METAR 및 TAF 보고).

지도상에서 검색 가능한 기상관측소가 노란 점과 빨간 점으로 표시되어 있습니다.

기상관측소 명을 보려면 표시 위로 마우스를 이동하세요.

날씨 관측과 예보를 보려면 클릭하세요.

지도 변경 : 확대하려면 엑스 표시가 있는 녹색 버튼, 축소하려면 빼기 표시가 있는 녹색 버튼, 다음 페이지의 지도를 보려면 녹색 화살표를 클릭하세요.


METAR-TAF: